Time;durP1;ratioP1;P1;durP2;ratioP2;P2;SDS_P1;SDS_P2;PMS_P1;PMS_P2;Temp;Humidity;BMP_temperature;BMP_pressure;BME280_temperature;BME280_humidity;BME280_pressure;Samples;Min_cycle;Max_cycle;Signal;HPM_P1;HPM_P2
2022/01/08 00:00:51;;;;;;;14.43;6.50;;;;;;;5.32;61.48;101014.00;5264402;28;20424;-43
2022/01/08 00:03:23;;;;;;;19.80;5.22;;;;;;;5.36;61.26;101023.34;5265482;27;20891;-45
2022/01/08 00:05:56;;;;;;;18.80;5.45;;;;;;;5.38;61.66;101021.44;5270927;28;21002;-43
2022/01/08 00:08:29;;;;;;;9.05;5.45;;;;;;;5.32;61.62;101014.00;5260436;28;20408;-43
2022/01/08 00:11:01;;;;;;;11.75;5.70;;;;;;;5.40;61.59;101022.16;5269152;28;20384;-47
2022/01/08 00:13:35;;;;;;;15.93;5.10;;;;;;;5.42;61.68;101019.41;5271809;28;20425;-48
2022/01/08 00:16:08;;;;;;;10.18;4.72;;;;;;;5.41;61.57;101031.69;5267141;28;20753;-44
2022/01/08 00:18:41;;;;;;;18.27;5.43;;;;;;;5.45;61.67;101030.53;5269400;28;20423;-43
2022/01/08 00:21:13;;;;;;;14.93;5.35;;;;;;;5.48;61.58;101030.31;5267557;27;20776;-42
2022/01/08 00:23:46;;;;;;;16.38;4.85;;;;;;;5.51;61.46;101030.09;5267912;27;20408;-43
2022/01/08 00:26:18;;;;;;;19.17;5.63;;;;;;;5.55;61.49;101030.69;5270062;28;20393;-43
2022/01/08 00:28:51;;;;;;;14.77;5.53;;;;;;;5.57;61.56;101043.66;5268740;27;20418;-43
2022/01/08 00:31:25;;;;;;;14.75;5.60;;;;;;;5.58;61.42;101042.72;5269054;28;20469;-44
2022/01/08 00:33:57;;;;;;;15.35;5.35;;;;;;;5.60;61.58;101038.19;5272089;28;20392;-44
2022/01/08 00:36:29;;;;;;;14.40;5.25;;;;;;;5.63;61.25;101033.56;5269730;28;20435;-47
2022/01/08 00:39:01;;;;;;;14.23;5.22;;;;;;;5.67;61.34;101036.81;5264704;28;20896;-44
2022/01/08 00:41:34;;;;;;;19.80;5.30;;;;;;;5.58;61.28;101030.47;5272240;27;20507;-43
2022/01/08 00:44:06;;;;;;;19.48;6.20;;;;;;;5.70;61.08;101036.59;5270559;28;20404;-44
2022/01/08 00:46:40;;;;;;;11.50;5.60;;;;;;;5.68;61.44;101030.63;5267553;28;20753;-43
2022/01/08 00:49:12;;;;;;;16.02;5.78;;;;;;;5.68;61.11;101030.63;5267284;27;20416;-43
2022/01/08 00:51:44;;;;;;;13.67;6.07;;;;;;;5.70;61.33;101034.81;5270646;28;21060;-44
2022/01/08 00:54:17;;;;;;;13.95;5.53;;;;;;;5.70;61.29;101047.91;5267269;28;20428;-42
2022/01/08 00:56:50;;;;;;;13.88;5.57;;;;;;;5.72;61.15;101043.38;5269860;28;20760;-44
2022/01/08 00:59:22;;;;;;;16.05;5.15;;;;;;;5.71;61.23;101030.38;5265815;28;20979;-43
2022/01/08 01:01:56;;;;;;;15.23;6.13;;;;;;;5.31;61.38;100973.06;5262676;28;20400;-47
2022/01/08 01:04:28;;;;;;;17.52;6.75;;;;;;;5.38;61.27;100987.38;5263195;28;20817;-47
2022/01/08 01:07:01;;;;;;;22.48;6.38;;;;;;;5.61;61.46;101029.41;5267933;28;20439;-43
2022/01/08 01:09:33;;;;;;;15.57;6.10;;;;;;;5.60;61.45;101022.47;5263828;28;20516;-42
2022/01/08 01:12:07;;;;;;;19.87;5.50;;;;;;;5.55;61.32;101015.78;5267281;28;20793;-48
2022/01/08 01:14:39;;;;;;;16.77;5.22;;;;;;;5.51;61.57;101023.97;5263810;28;20424;-43
2022/01/08 01:17:13;;;;;;;15.10;6.47;;;;;;;5.53;61.54;101027.34;5271006;28;20499;-43
2022/01/08 01:19:47;;;;;;;15.17;6.07;;;;;;;5.53;61.46;101022.94;5265471;28;20755;-43
2022/01/08 01:22:23;;;;;;;14.50;5.18;;;;;;;5.54;61.62;101027.25;5262524;28;20419;-43
2022/01/08 01:25:02;;;;;;;14.07;4.88;;;;;;;5.53;61.32;101016.84;5270416;28;20461;-44
2022/01/08 01:27:55;;;;;;;13.98;4.40;;;;;;;5.51;61.63;101030.09;5267515;28;20424;-45
2022/01/08 01:42:09;;;;;;;15.25;4.70;;;;;;;5.56;61.49;101021.88;5267733;28;20424;-50
2022/01/08 01:47:35;;;;;;;17.35;5.50;;;;;;;5.50;61.71;101023.16;5266169;28;20956;-43
2022/01/08 01:50:10;;;;;;;19.83;4.70;;;;;;;5.49;61.76;101026.72;5258427;28;20417;-43
2022/01/08 01:52:43;;;;;;;17.73;5.50;;;;;;;5.49;61.71;101031.97;5266799;28;20428;-43
2022/01/08 01:55:15;;;;;;;26.58;4.25;;;;;;;5.48;62.03;101021.59;5266035;28;20428;-43
2022/01/08 01:57:48;;;;;;;11.57;4.63;;;;;;;5.47;61.87;101023.38;5263001;28;20495;-44
2022/01/08 02:00:20;;;;;;;14.90;4.35;;;;;;;5.48;61.95;101029.44;5265763;28;20483;-43
2022/01/08 02:02:53;;;;;;;8.55;3.53;;;;;;;5.48;61.97;101032.06;5262289;28;20419;-46
2022/01/08 02:05:27;;;;;;;13.00;4.05;;;;;;;5.46;61.83;101034.81;5269838;28;20808;-44
2022/01/08 02:07:59;;;;;;;7.13;2.97;;;;;;;5.42;61.80;101041.22;5261757;28;20406;-45
2022/01/08 02:10:32;;;;;;;14.93;3.08;;;;;;;5.35;61.90;101031.28;5264127;28;20426;-43
2022/01/08 02:13:04;;;;;;;8.00;3.05;;;;;;;5.34;62.10;101033.09;5265075;28;20437;-45
2022/01/08 02:15:36;;;;;;;9.85;3.80;;;;;;;5.33;62.24;101031.41;5272139;28;20420;-44
2022/01/08 02:18:09;;;;;;;10.43;3.80;;;;;;;5.33;62.08;101031.41;5264735;28;20418;-43
2022/01/08 02:20:42;;;;;;;7.15;3.60;;;;;;;5.35;61.90;101034.75;5270061;28;20497;-45
2022/01/08 02:23:15;;;;;;;9.68;4.10;;;;;;;5.38;62.12;101037.13;5275119;28;20769;-43
2022/01/08 02:25:47;;;;;;;15.03;3.67;;;;;;;5.43;62.04;101037.66;5267185;27;20934;-44
2022/01/08 02:28:20;;;;;;;10.00;3.13;;;;;;;5.45;62.10;101035.78;5273026;28;20857;-45
2022/01/08 02:30:52;;;;;;;7.75;3.08;;;;;;;5.48;62.33;101040.78;5267957;28;20835;-43
2022/01/08 02:33:25;;;;;;;8.07;3.42;;;;;;;5.49;62.03;101037.19;5271005;28;20396;-46
2022/01/08 02:36:04;;;;;;;9.25;3.72;;;;;;;5.49;61.92;101041.63;5268789;28;20413;-44
2022/01/08 02:38:36;;;;;;;11.00;4.00;;;;;;;5.47;61.94;101038.25;5267455;28;20420;-45
2022/01/08 02:41:09;;;;;;;13.52;4.25;;;;;;;5.43;62.11;101037.66;5275478;28;20881;-45
2022/01/08 02:43:45;;;;;;;11.57;4.40;;;;;;;5.40;62.03;101035.25;5265615;28;20582;-45
2022/01/08 02:46:17;;;;;;;12.30;4.18;;;;;;;5.39;62.13;101041.44;5271102;28;20487;-44
2022/01/08 02:48:50;;;;;;;11.52;5.00;;;;;;;5.38;62.09;101039.75;5269004;27;20419;-43
2022/01/08 02:51:24;;;;;;;11.77;4.35;;;;;;;5.33;62.11;101036.66;5274152;28;20393;-44
2022/01/08 02:53:57;;;;;;;11.45;4.63;;;;;;;5.34;62.12;101042.72;5272369;28;20515;-43
2022/01/08 02:56:29;;;;;;;15.13;5.43;;;;;;;5.34;62.25;101048.78;5265567;28;20411;-45
2022/01/08 02:59:01;;;;;;;17.10;4.63;;;;;;;5.35;62.11;101042.59;5270001;28;20449;-42
2022/01/08 03:01:34;;;;;;;16.30;6.18;;;;;;;5.37;62.17;101043.34;5264261;28;20408;-43
2022/01/08 03:04:08;;;;;;;14.20;4.95;;;;;;;5.39;62.46;101040.59;5260720;28;20423;-43
2022/01/08 03:06:42;;;;;;;12.07;3.78;;;;;;;5.42;62.38;101043.84;5271322;28;20924;-43
2022/01/08 03:09:14;;;;;;;15.13;3.80;;;;;;;5.45;62.31;101046.25;5265760;28;20404;-43
2022/01/08 03:11:46;;;;;;;12.77;3.92;;;;;;;5.49;62.44;101052.94;5266006;28;20422;-47
2022/01/08 03:14:19;;;;;;;11.15;3.65;;;;;;;5.53;62.23;101071.88;5269794;28;20405;-46
2022/01/08 03:16:51;;;;;;;12.55;3.63;;;;;;;5.56;62.17;101053.31;5270426;28;20408;-48
2022/01/08 03:19:23;;;;;;;11.95;4.03;;;;;;;5.60;62.24;101038.19;5266113;28;20402;-44
2022/01/08 03:22:02;;;;;;;13.80;4.55;;;;;;;5.63;62.17;101043.22;5270558;28;20484;-44
2022/01/08 03:24:35;;;;;;;12.30;4.20;;;;;;;5.67;62.20;101036.81;5269096;28;20412;-43
2022/01/08 03:27:07;;;;;;;12.07;4.10;;;;;;;5.67;62.06;101039.44;5271984;28;20440;-42
2022/01/08 03:29:39;;;;;;;16.50;4.45;;;;;;;5.67;62.13;101045.50;5271449;27;20423;-45
2022/01/08 03:32:12;;;;;;;17.35;3.97;;;;;;;5.68;62.24;101041.09;5267579;28;20450;-43
2022/01/08 03:34:44;;;;;;;13.02;4.50;;;;;;;5.67;62.16;101044.69;5268251;28;20410;-43
2022/01/08 03:37:18;;;;;;;18.93;3.87;;;;;;;5.64;62.14;101037.03;5272965;28;20405;-47
2022/01/08 03:39:50;;;;;;;12.88;4.35;;;;;;;5.60;62.43;101040.81;5269068;28;20388;-43
2022/01/08 03:42:22;;;;;;;12.85;4.35;;;;;;;5.54;62.31;101036.84;5263304;28;20906;-42
2022/01/08 03:44:55;;;;;;;7.28;3.75;;;;;;;5.50;62.53;101038.88;5271673;28;20410;-42
2022/01/08 03:47:52;;;;;;;8.57;3.53;;;;;;;5.44;62.66;101044.56;5270957;28;20479;-43
2022/01/08 03:50:23;;;;;;;9.80;3.65;;;;;;;5.37;62.47;101045.94;5268014;27;20915;-42
2022/01/08 03:52:57;;;;;;;6.30;3.50;;;;;;;5.32;62.57;101045.44;5263309;28;20410;-42
2022/01/08 03:55:29;;;;;;;7.18;3.28;;;;;;;5.18;62.67;101035.97;5252386;28;20738;-46
2022/01/08 03:58:01;;;;;;;9.80;4.27;;;;;;;5.19;62.72;101048.09;5266660;28;20773;-44
2022/01/08 04:00:34;;;;;;;10.52;3.83;;;;;;;5.17;62.79;101051.78;5266959;27;20415;-43
2022/01/08 04:03:06;;;;;;;12.27;3.45;;;;;;;5.12;62.76;101052.13;5266445;28;20911;-43
2022/01/08 04:05:39;;;;;;;9.60;3.55;;;;;;;5.08;62.70;101048.88;5269898;27;20885;-47
2022/01/08 04:08:12;;;;;;;12.30;4.20;;;;;;;5.07;62.54;101041.97;5269786;27;20446;-42
2022/01/08 04:10:45;;;;;;;12.38;3.60;;;;;;;5.06;62.42;101045.53;5271167;28;20880;-44
2022/01/08 04:13:22;;;;;;;11.20;4.10;;;;;;;5.05;62.56;101043.88;5270611;28;20785;-43
2022/01/08 04:15:58;;;;;;;12.85;4.30;;;;;;;5.03;62.69;101039.69;5270914;28;20424;-44
2022/01/08 04:18:30;;;;;;;13.73;4.10;;;;;;;5.00;62.49;101045.13;5264547;28;20412;-48
2022/01/08 04:21:21;;;;;;;11.68;4.68;;;;;;;4.97;62.69;101050.59;5272388;28;20412;-43
2022/01/08 04:23:58;;;;;;;10.27;4.18;;;;;;;4.92;62.60;101063.97;5269076;28;20759;-42
2022/01/08 04:26:30;;;;;;;11.65;4.25;;;;;;;4.88;62.71;101057.31;5255548;28;20423;-44
2022/01/08 04:29:04;;;;;;;7.70;3.55;;;;;;;4.86;62.75;101061.78;5266347;28;20932;-43
2022/01/08 04:31:37;;;;;;;11.88;4.53;;;;;;;4.85;62.75;101060.13;5268917;28;20396;-46
2022/01/08 04:34:09;;;;;;;12.70;4.95;;;;;;;4.84;62.83;101059.31;5270311;27;20415;-44
2022/01/08 04:36:41;;;;;;;11.45;4.10;;;;;;;4.81;62.58;101059.50;5270009;28;20402;-48
2022/01/08 04:39:15;;;;;;;14.85;4.93;;;;;;;4.81;62.65;101069.16;5270703;28;20427;-44
2022/01/08 04:41:47;;;;;;;12.60;4.88;;;;;;;4.81;62.68;101064.75;5264589;28;20788;-45
2022/01/08 04:44:20;;;;;;;10.23;4.15;;;;;;;4.83;62.78;101060.25;5268384;28;20410;-44
2022/01/08 04:46:52;;;;;;;15.38;4.38;;;;;;;4.89;62.58;101058.97;5273496;27;20415;-44
2022/01/08 04:49:25;;;;;;;13.50;4.78;;;;;;;4.95;62.75;101066.38;5268092;27;20406;-44
2022/01/08 04:51:58;;;;;;;12.23;4.15;;;;;;;4.98;62.53;101057.47;5262816;28;20427;-43
2022/01/08 04:54:31;;;;;;;13.75;4.45;;;;;;;4.99;62.67;101060.00;5262534;27;20738;-50
2022/01/08 04:57:41;;;;;;;13.80;4.60;;;;;;;5.02;62.74;101059.78;5267827;28;20411;-44
2022/01/08 05:00:14;;;;;;;11.90;4.50;;;;;;;5.00;62.77;101056.44;5260909;28;20753;-44
2022/01/08 05:02:47;;;;;;;12.75;4.18;;;;;;;5.03;62.73;101058.84;5263760;28;20420;-45
2022/01/08 05:05:19;;;;;;;10.48;4.28;;;;;;;5.02;62.83;101062.41;5269725;28;20403;-44
2022/01/08 05:07:51;;;;;;;18.48;5.15;;;;;;;5.02;62.80;101054.56;5266838;28;20412;-43
2022/01/08 05:10:25;;;;;;;22.40;5.75;;;;;;;5.00;62.79;101061.66;5256703;28;20404;-44
2022/01/08 05:13:00;;;;;;;14.40;5.13;;;;;;;4.97;62.79;101056.66;5259777;28;20876;-45
2022/01/08 05:15:32;;;;;;;20.08;5.40;;;;;;;4.96;62.77;101065.47;5270781;28;20896;-44
2022/01/08 05:18:07;;;;;;;12.77;5.25;;;;;;;4.93;62.96;101064.84;5269449;28;20414;-47
2022/01/08 05:20:44;;;;;;;20.00;6.43;;;;;;;4.91;62.96;101059.69;5265726;28;20426;-45
2022/01/08 05:23:16;;;;;;;11.23;4.57;;;;;;;4.94;62.86;101064.72;5265359;28;20512;-43
2022/01/08 05:25:50;;;;;;;18.60;5.60;;;;;;;4.98;62.70;101055.69;5269091;27;20416;-43
2022/01/08 05:28:22;;;;;;;19.52;5.50;;;;;;;5.03;62.79;101050.97;5269550;28;20400;-42
2022/01/08 05:30:55;;;;;;;18.63;5.65;;;;;;;5.09;62.87;101055.78;5267481;27;20393;-43
2022/01/08 05:33:27;;;;;;;22.23;5.90;;;;;;;5.12;62.88;101064.38;5271076;27;20404;-42
2022/01/08 05:35:59;;;;;;;17.55;5.97;;;;;;;5.15;62.91;101074.63;5261061;28;20411;-45
2022/01/08 05:38:31;;;;;;;16.65;6.25;;;;;;;5.14;62.99;101070.31;5266305;28;20413;-43
2022/01/08 05:41:05;;;;;;;17.58;5.50;;;;;;;5.15;62.95;101072.00;5266014;28;20420;-43
2022/01/08 05:43:37;;;;;;;19.10;6.05;;;;;;;5.16;62.90;101081.53;5267035;28;20416;-44
2022/01/08 05:46:10;;;;;;;15.45;4.85;;;;;;;5.17;63.03;101084.06;5272583;28;20419;-42
2022/01/08 05:48:42;;;;;;;15.40;5.28;;;;;;;5.19;62.89;101082.16;5265721;28;20823;-43
2022/01/08 05:51:14;;;;;;;14.70;4.90;;;;;;;5.20;63.02;101078.59;5261843;28;20932;-50
2022/01/08 05:53:47;;;;;;;13.70;4.40;;;;;;;5.21;63.00;101082.06;5267587;28;20430;-43
2022/01/08 05:56:21;;;;;;;15.13;4.53;;;;;;;5.18;63.03;101088.34;5270738;28;20497;-44
2022/01/08 05:58:53;;;;;;;13.88;5.35;;;;;;;5.15;62.97;101082.50;5266518;28;20393;-44
2022/01/08 06:01:26;;;;;;;21.13;5.00;;;;;;;5.14;63.17;101078.19;5256832;28;20480;-43
2022/01/08 06:03:58;;;;;;;21.13;5.70;;;;;;;5.14;62.96;101078.19;5266979;28;20895;-43
2022/01/08 06:06:30;;;;;;;14.75;5.30;;;;;;;5.13;63.42;101071.28;5262606;28;20987;-44
2022/01/08 06:09:03;;;;;;;18.67;6.18;;;;;;;5.14;62.99;101079.03;5265777;28;20756;-44
2022/01/08 06:11:37;;;;;;;16.35;5.03;;;;;;;5.14;63.07;101073.81;5258701;28;20404;-44
2022/01/08 06:14:09;;;;;;;25.17;6.00;;;;;;;5.15;63.21;101079.88;5261644;28;20423;-43
2022/01/08 06:16:42;;;;;;;18.98;5.28;;;;;;;5.14;63.09;101080.78;5269616;28;20426;-43
2022/01/08 06:19:15;;;;;;;12.50;5.47;;;;;;;5.13;63.11;101076.50;5269750;28;20569;-43
2022/01/08 06:21:47;;;;;;;19.75;5.28;;;;;;;5.15;63.22;101074.63;5260283;28;20422;-43
2022/01/08 06:24:20;;;;;;;17.20;5.53;;;;;;;5.19;63.02;101076.91;5268286;28;20908;-44
2022/01/08 06:26:53;;;;;;;18.63;4.60;;;;;;;5.19;63.15;101073.47;5268489;28;20471;-43
2022/01/08 06:29:26;;;;;;;18.67;5.28;;;;;;;5.20;63.24;101062.03;5255997;28;20401;-43
2022/01/08 06:31:58;;;;;;;13.88;4.68;;;;;;;5.22;63.21;101057.53;5263547;28;20410;-43
2022/01/08 06:34:31;;;;;;;17.67;5.00;;;;;;;5.21;63.08;101059.31;5260715;28;20399;-44
2022/01/08 06:37:03;;;;;;;17.40;5.72;;;;;;;5.21;63.20;101055.88;5268545;28;20518;-42
2022/01/08 06:39:36;;;;;;;15.80;4.82;;;;;;;5.21;63.10;101058.50;5266468;28;20915;-42
2022/01/08 06:42:09;;;;;;;18.02;5.57;;;;;;;5.21;63.03;101055.88;5263905;28;20440;-43
2022/01/08 06:44:42;;;;;;;18.67;4.35;;;;;;;5.21;62.98;101048.00;5261306;28;20410;-46
2022/01/08 06:47:14;;;;;;;12.02;4.47;;;;;;;5.22;63.09;101047.88;5265951;28;20824;-47
2022/01/08 06:49:46;;;;;;;15.75;5.00;;;;;;;5.22;63.03;101047.06;5268995;28;20973;-45
2022/01/08 06:52:18;;;;;;;11.77;5.47;;;;;;;5.24;63.07;101039.94;5263060;28;20431;-43
2022/01/08 06:54:51;;;;;;;16.63;5.88;;;;;;;5.24;63.17;101046.00;5267127;28;20408;-43
2022/01/08 06:57:24;;;;;;;19.35;5.90;;;;;;;5.25;63.07;101054.69;5268698;28;20420;-43
2022/01/08 06:59:57;;;;;;;17.38;5.88;;;;;;;5.27;62.97;101053.63;5265014;28;20428;-44
2022/01/08 07:02:29;;;;;;;18.67;5.65;;;;;;;5.02;62.83;101017.91;5265978;28;20859;-43
2022/01/08 07:05:01;;;;;;;16.15;5.28;;;;;;;5.28;62.78;101044.00;5269498;27;20408;-44
2022/01/08 07:07:34;;;;;;;12.87;5.83;;;;;;;5.25;62.93;101044.22;5269067;28;20416;-47
2022/01/08 07:10:07;;;;;;;17.95;6.35;;;;;;;5.24;62.71;101037.31;5265714;28;20980;-43
2022/01/08 07:12:41;;;;;;;22.15;6.40;;;;;;;5.24;62.67;101035.53;5269585;27;20404;-44
2022/01/08 07:15:13;;;;;;;15.82;5.95;;;;;;;5.27;62.72;101034.47;5268979;28;20409;-45
2022/01/08 07:17:46;;;;;;;20.63;6.60;;;;;;;5.24;62.85;101034.69;5268208;27;20933;-43
2022/01/08 07:20:19;;;;;;;26.20;7.03;;;;;;;5.26;62.85;101040.66;5269229;28;20421;-42
2022/01/08 07:22:52;;;;;;;16.55;7.00;;;;;;;5.26;62.61;101035.41;5265702;27;20407;-43
2022/01/08 07:25:24;;;;;;;17.02;5.88;;;;;;;5.25;62.75;101028.50;5269774;27;20455;-43
2022/01/08 07:27:57;;;;;;;12.13;5.22;;;;;;;5.23;62.78;101030.38;5269511;28;20511;-44
2022/01/08 07:30:30;;;;;;;16.70;5.20;;;;;;;5.21;62.78;101027.91;5271893;28;20479;-44
2022/01/08 07:33:02;;;;;;;11.93;4.65;;;;;;;5.21;62.70;101027.91;5270300;28;20542;-43
2022/01/08 07:35:35;;;;;;;14.88;5.50;;;;;;;5.21;62.69;101032.31;5272064;28;20765;-42
2022/01/08 07:38:07;;;;;;;15.83;5.17;;;;;;;5.21;62.86;101027.91;5269778;28;20417;-43
2022/01/08 07:40:39;;;;;;;9.85;4.45;;;;;;;5.21;62.56;101032.31;5271177;28;20420;-45
2022/01/08 07:43:13;;;;;;;12.65;5.07;;;;;;;5.21;62.52;101032.31;5269272;28;20421;-45
2022/01/08 07:45:46;;;;;;;16.15;5.50;;;;;;;5.22;62.80;101031.34;5261423;27;20426;-44
2022/01/08 07:48:18;;;;;;;16.73;6.63;;;;;;;5.24;62.54;101026.84;5267702;28;20820;-45
2022/01/08 07:50:50;;;;;;;10.77;4.60;;;;;;;5.26;62.46;101030.16;5266256;28;20770;-42
2022/01/08 07:53:22;;;;;;;18.55;5.47;;;;;;;5.29;62.55;101027.31;5268182;27;20393;-42
2022/01/08 07:55:55;;;;;;;15.10;5.20;;;;;;;5.29;62.64;101024.72;5268230;28;20456;-43
2022/01/08 07:58:28;;;;;;;19.40;8.10;;;;;;;5.28;62.56;101007.34;5270370;27;20467;-43
2022/01/08 08:01:01;;;;;;;15.50;6.80;;;;;;;5.23;62.49;101004.22;5266057;27;20419;-44
2022/01/08 08:03:33;;;;;;;15.27;5.15;;;;;;;5.26;62.64;101009.22;5265439;28;20762;-44
2022/01/08 08:06:09;;;;;;;16.30;6.13;;;;;;;5.18;62.42;100990.63;5262541;28;20446;-43
2022/01/08 08:08:42;;;;;;;12.77;5.70;;;;;;;5.28;62.69;101002.09;5264457;28;20417;-43
2022/01/08 08:11:14;;;;;;;11.27;4.40;;;;;;;5.25;62.53;100989.22;5265906;28;20586;-44
2022/01/08 08:13:48;;;;;;;14.73;4.60;;;;;;;5.27;62.54;100995.19;5268310;28;20416;-44
2022/01/08 08:16:20;;;;;;;21.95;5.05;;;;;;;5.24;62.74;100991.03;5267821;28;20867;-42
2022/01/08 08:18:53;;;;;;;16.45;6.57;;;;;;;5.24;62.74;100984.94;5262853;28;20398;-42
2022/01/08 08:21:25;;;;;;;16.80;5.32;;;;;;;5.23;62.70;100978.03;5268072;28;20393;-42
2022/01/08 08:23:57;;;;;;;14.05;6.00;;;;;;;5.20;62.78;100979.09;5264672;28;20409;-42
2022/01/08 08:26:30;;;;;;;17.95;5.90;;;;;;;5.17;62.70;100957.53;5269102;28;20414;-45
2022/01/08 08:29:04;;;;;;;20.85;5.53;;;;;;;5.15;62.99;100965.50;5261595;28;20493;-42
2022/01/08 08:31:36;;;;;;;15.65;5.28;;;;;;;5.17;62.76;100957.53;5268385;28;20886;-46
2022/01/08 08:34:09;;;;;;;13.57;5.70;;;;;;;5.18;62.92;100959.22;5270982;28;20416;-41
2022/01/08 08:36:42;;;;;;;26.80;5.38;;;;;;;5.19;63.10;100955.63;5272927;28;20889;-43
2022/01/08 08:39:14;;;;;;;16.65;5.70;;;;;;;5.23;62.80;100959.69;5272231;27;20765;-42
2022/01/08 08:41:46;;;;;;;14.32;5.40;;;;;;;5.23;62.39;100952.69;5274165;28;20412;-46
2022/01/08 08:44:20;;;;;;;16.10;5.17;;;;;;;5.24;62.84;100956.16;5273495;28;20417;-45
2022/01/08 08:46:52;;;;;;;14.57;5.50;;;;;;;5.25;62.67;100952.56;5266899;28;20488;-43
2022/01/08 08:49:25;;;;;;;18.38;6.70;;;;;;;5.24;62.72;100954.34;5264168;28;20404;-43
2022/01/08 08:51:57;;;;;;;16.97;5.87;;;;;;;5.22;62.77;100947.56;5270288;28;20487;-43
2022/01/08 08:54:29;;;;;;;16.42;5.60;;;;;;;5.23;62.96;100951.84;5264185;28;20425;-43
2022/01/08 08:57:02;;;;;;;14.13;6.22;;;;;;;5.27;62.72;100934.97;5251745;28;20417;-44
2022/01/08 08:59:55;;;;;;;16.88;6.10;;;;;;;5.28;62.95;100942.69;5253472;28;20398;-43
2022/01/08 09:02:27;;;;;;;14.15;6.35;;;;;;;5.25;62.69;100949.94;5253375;28;20542;-43
2022/01/08 09:04:59;;;;;;;10.87;4.43;;;;;;;5.26;62.73;100941.13;5264046;28;20519;-46
2022/01/08 09:07:33;;;;;;;13.88;5.95;;;;;;;5.29;62.69;100935.69;5272267;28;20408;-43
2022/01/08 09:10:07;;;;;;;13.15;4.82;;;;;;;5.30;62.63;100937.38;5272665;28;20465;-43
2022/01/08 09:12:41;;;;;;;14.38;5.25;;;;;;;5.26;62.71;100910.53;5270362;28;20413;-43
2022/01/08 09:15:15;;;;;;;10.80;3.97;;;;;;;5.26;62.95;100905.31;5258944;28;20408;-43
2022/01/08 09:17:48;;;;;;;13.82;4.95;;;;;;;5.26;62.80;100896.63;5267166;28;20427;-43
2022/01/08 09:20:21;;;;;;;12.90;5.72;;;;;;;5.27;62.88;100882.59;5267208;28;20504;-45
2022/01/08 09:22:53;;;;;;;13.68;5.10;;;;;;;5.29;62.76;100876.28;5265944;27;20402;-43
2022/01/08 09:25:26;;;;;;;12.73;5.30;;;;;;;5.31;62.88;100877.00;5258200;28;20426;-42
2022/01/08 09:27:58;;;;;;;12.77;5.53;;;;;;;5.32;62.72;100881.28;5253903;28;20906;-42
2022/01/08 09:30:32;;;;;;;18.65;7.28;;;;;;;5.34;62.81;100875.94;5252471;28;20408;-45
2022/01/08 09:33:04;;;;;;;16.58;5.13;;;;;;;5.35;62.77;100872.38;5266358;28;20416;-43
2022/01/08 09:35:37;;;;;;;14.30;5.88;;;;;;;5.36;62.67;100868.81;5265320;28;20414;-42
2022/01/08 09:38:09;;;;;;;28.08;5.32;;;;;;;5.38;62.87;100866.91;5262376;28;20424;-43
2022/01/08 09:40:42;;;;;;;15.73;6.00;;;;;;;5.39;62.75;100868.59;5266539;28;20503;-44
2022/01/08 09:43:16;;;;;;;13.38;5.97;;;;;;;5.39;62.80;100871.22;5270374;28;20489;-42
2022/01/08 09:45:49;;;;;;;17.27;6.55;;;;;;;5.38;62.87;100874.75;5267567;28;20499;-45
2022/01/08 09:48:22;;;;;;;11.17;6.03;;;;;;;5.39;62.82;100865.97;5264634;28;20413;-45
2022/01/08 09:50:54;;;;;;;14.25;6.30;;;;;;;5.40;62.92;100840.63;5258527;28;20408;-41
2022/01/08 09:53:27;;;;;;;17.10;5.93;;;;;;;5.39;62.85;100833.69;5272680;28;20411;-41
2022/01/08 09:56:00;;;;;;;15.55;6.65;;;;;;;5.39;62.88;100821.44;5257074;28;20387;-42
2022/01/08 09:58:33;;;;;;;13.80;7.07;;;;;;;5.35;63.02;100820.00;5268188;28;20558;-43
2022/01/08 10:01:26;;;;;;;22.15;7.13;;;;;;;5.34;63.10;100807.84;5273394;28;20435;-41
2022/01/08 10:04:01;;;;;;;16.57;8.90;;;;;;;5.34;63.22;100809.66;5265979;28;20408;-43
2022/01/08 10:06:35;;;;;;;24.30;10.40;;;;;;;5.36;62.94;100802.50;5263525;28;20412;-42
2022/01/08 10:09:08;;;;;;;17.90;9.43;;;;;;;5.36;63.11;100795.50;5264646;28;20464;-44
2022/01/08 10:11:50;;;;;;;16.67;10.20;;;;;;;5.37;63.11;100789.28;5265295;28;20943;-43
2022/01/08 10:17:13;;;;;;;23.73;11.48;;;;;;;5.13;63.32;100750.09;5265938;28;20412;-43
2022/01/08 10:17:45;;;;;;;19.83;10.93;;;;;;;5.38;63.12;100787.50;5261630;28;20404;-43
2022/01/08 10:20:33;;;;;;;26.08;11.88;;;;;;;5.33;63.21;100764.31;5264370;28;20479;-41
2022/01/08 10:23:18;;;;;;;24.52;11.40;;;;;;;5.40;63.25;100772.53;5265958;28;20396;-42
2022/01/08 10:26:00;;;;;;;24.00;13.02;;;;;;;5.39;63.23;100770.81;5263619;28;20410;-42
2022/01/08 10:28:39;;;;;;;15.50;10.48;;;;;;;5.41;63.32;100772.38;5265028;28;20438;-44
2022/01/08 10:31:17;;;;;;;22.27;13.32;;;;;;;5.40;63.27;100762.03;5265715;28;20424;-45
2022/01/08 10:33:53;;;;;;;18.88;13.15;;;;;;;5.39;63.36;100753.34;5266015;28;20398;-43
2022/01/08 10:36:29;;;;;;;22.17;12.30;;;;;;;5.38;63.23;100758.69;5265001;28;20498;-42
2022/01/08 10:39:05;;;;;;;23.23;11.73;;;;;;;5.37;63.44;100750.00;5267159;28;20401;-42
2022/01/08 10:41:42;;;;;;;22.73;12.95;;;;;;;5.37;63.56;100738.72;5271974;28;20403;-43
2022/01/08 10:44:16;;;;;;;18.92;11.90;;;;;;;5.32;63.43;100734.63;5267712;28;20424;-44
2022/01/08 10:46:57;;;;;;;22.60;12.63;;;;;;;5.33;63.76;100751.22;5270108;28;20428;-47
2022/01/08 10:49:34;;;;;;;21.45;12.70;;;;;;;5.33;63.62;100727.63;5274328;28;20448;-46
2022/01/08 10:52:09;;;;;;;20.45;11.82;;;;;;;5.34;63.64;100725.84;5270598;28;20892;-42
2022/01/08 10:54:44;;;;;;;21.67;10.50;;;;;;;5.32;63.54;100710.25;5272826;27;20404;-42
2022/01/08 10:57:16;;;;;;;17.80;11.57;;;;;;;5.30;63.61;100717.41;5272753;28;20420;-43
2022/01/08 10:59:57;;;;;;;20.90;11.97;;;;;;;5.34;63.77;100707.53;5265918;28;20504;-45
2022/01/08 11:02:31;;;;;;;20.20;12.48;;;;;;;5.13;63.86;100653.25;5271162;28;20742;-43
2022/01/08 11:05:10;;;;;;;19.50;11.75;;;;;;;5.42;63.67;100682.41;5264637;27;20441;-42
2022/01/08 11:07:44;;;;;;;21.13;11.68;;;;;;;5.48;63.50;100676.69;5267143;28;20844;-42
2022/01/08 11:10:19;;;;;;;17.08;10.32;;;;;;;5.46;63.64;100675.97;5272536;28;20408;-42
2022/01/08 11:12:52;;;;;;;19.20;10.88;;;;;;;5.49;63.69;100665.25;5273465;28;20388;-42
2022/01/08 11:15:36;;;;;;;19.75;12.38;;;;;;;5.50;63.64;100655.59;5255600;28;20398;-42
2022/01/08 11:18:08;;;;;;;20.05;10.68;;;;;;;5.60;63.74;100653.06;5253741;28;20413;-46
2022/01/08 11:20:44;;;;;;;19.60;10.77;;;;;;;5.58;63.76;100640.13;5258252;28;20522;-48
2022/01/08 11:23:22;;;;;;;18.25;11.50;;;;;;;5.57;63.89;100625.31;5270260;28;20420;-45
2022/01/08 11:25:59;;;;;;;20.75;10.73;;;;;;;5.62;63.70;100623.19;5268567;28;21146;-43
2022/01/08 11:28:34;;;;;;;15.33;10.03;;;;;;;5.62;63.65;100622.34;5262410;28;20412;-43
2022/01/08 11:31:10;;;;;;;17.13;9.90;;;;;;;5.60;63.98;100600.69;5271285;27;20956;-44
2022/01/08 11:33:48;;;;;;;16.30;10.40;;;;;;;5.63;63.49;100593.41;5269416;28;20473;-43
2022/01/08 11:36:23;;;;;;;19.58;10.55;;;;;;;5.64;63.63;100583.78;5272715;27;21036;-43
2022/01/08 11:38:57;;;;;;;17.83;10.30;;;;;;;5.65;63.90;100580.19;5268676;28;20407;-43
2022/01/08 11:41:29;;;;;;;18.38;10.65;;;;;;;5.68;63.56;100566.84;5270211;28;20800;-43
2022/01/08 11:44:04;;;;;;;19.08;11.40;;;;;;;5.71;63.62;100561.34;5261094;28;20918;-41
2022/01/08 11:46:38;;;;;;;18.23;11.15;;;;;;;5.69;63.72;100539.69;5272111;28;20815;-42
2022/01/08 11:49:11;;;;;;;17.38;9.23;;;;;;;5.69;63.70;100545.75;5272754;27;20885;-43
2022/01/08 11:51:45;;;;;;;18.98;9.88;;;;;;;5.68;63.82;100527.53;5262931;28;20891;-42
2022/01/08 11:54:17;;;;;;;23.70;9.68;;;;;;;5.68;63.82;100511.81;5270665;28;20769;-42
2022/01/08 11:56:49;;;;;;;19.13;9.18;;;;;;;5.68;63.90;100503.97;5271778;27;20483;-44
2022/01/08 11:59:32;;;;;;;18.60;9.20;;;;;;;5.72;63.76;100502.75;5272459;28;20396;-43
2022/01/08 12:02:08;;;;;;;17.90;9.10;;;;;;;5.72;63.60;100479.16;5266446;28;20407;-45
2022/01/08 12:04:44;;;;;;;18.42;10.00;;;;;;;5.71;63.79;100469.66;5265876;28;20774;-42
2022/01/08 12:07:37;;;;;;;15.15;9.05;;;;;;;5.73;63.60;100462.50;5269354;28;20416;-45
2022/01/08 12:10:19;;;;;;;17.03;10.63;;;;;;;5.67;63.71;100447.28;5268903;28;20403;-44